Charco, Texas
Current Conditions -  °F | °C
As of 7:35 AM on Wednesday 26 Nov 2014 (Local Time) from KBEA Reporting Station
Clear Clear  
Wind Chill: 43°   Ceiling: Unl
Heat Index: 47°   Visibility: 10mi
Dew Point: 36°   Wind: 7mph
Humidity: 66%   Direction: 230°SW
Pressure: 30.26"   Gusts: NA
Location:  28.6563°N, 97.4287°W
Report Text: KBEA 261335Z AUTO 23006KT 10SM CLR 08/02 A3026 RMK AO2 T00810020
Loading
Personal Weather Stations






























Interactive Weather Map New forecast layout! Learn more

10-Day Weather Forecast

Advertisements
Track Severe Weather on mobile